Time;durP1;ratioP1;P1;durP2;ratioP2;P2;SDS_P1;SDS_P2;PMS_P1;PMS_P2;Temp;Humidity;BMP_temperature;BMP_pressure;BME280_temperature;BME280_humidity;BME280_pressure;Samples;Min_cycle;Max_cycle;Signal;HPM_P1;HPM_P2
2022/06/21 00:00:21;;;;;;;2.72;1.40;;;15.00;1.00;;;;;;7362868;19;20837;-58
2022/06/21 00:02:53;;;;;;;3.33;1.30;;;15.10;1.00;;;;;;7361246;19;20040;-59
2022/06/21 00:05:27;;;;;;;2.15;1.30;;;15.20;1.00;;;;;;7358534;19;20467;-59
2022/06/21 00:07:57;;;;;;;4.68;1.58;;;15.00;1.00;;;;;;7364347;19;20032;-59
2022/06/21 00:10:27;;;;;;;1.92;1.27;;;14.80;1.00;;;;;;7363537;19;20021;-59
2022/06/21 00:12:57;;;;;;;2.28;1.60;;;14.80;1.00;;;;;;7361423;19;20074;-59
2022/06/21 00:15:30;;;;;;;2.92;1.70;;;14.80;1.00;;;;;;7380846;19;20346;-59
2022/06/21 00:18:00;;;;;;;1.88;1.40;;;14.70;1.00;;;;;;7363925;19;20010;-59
2022/06/21 00:20:30;;;;;;;5.28;1.50;;;14.70;1.00;;;;;;7361771;19;20449;-59
2022/06/21 00:23:00;;;;;;;2.38;1.50;;;14.70;1.00;;;;;;7361034;19;20027;-59
2022/06/21 00:25:30;;;;;;;3.70;1.67;;;14.60;1.00;;;;;;7359579;19;20085;-59
2022/06/21 00:28:00;;;;;;;1.73;1.30;;;14.50;1.00;;;;;;7364092;19;20031;-59
2022/06/21 00:30:33;;;;;;;2.90;1.42;;;14.50;1.00;;;;;;7384516;19;20011;-58
2022/06/21 00:33:03;;;;;;;1.70;1.15;;;14.50;1.00;;;;;;7361316;19;20090;-59
2022/06/21 00:35:33;;;;;;;1.63;1.30;;;14.50;1.00;;;;;;7357015;19;20013;-58
2022/06/21 00:38:04;;;;;;;3.65;1.20;;;14.40;1.00;;;;;;7364152;19;20006;-58
2022/06/21 00:40:36;;;;;;;2.20;1.55;;;14.40;1.00;;;;;;7362376;19;20026;-59
2022/06/21 00:43:13;;;;;;;3.65;1.48;;;14.40;1.00;;;;;;7364400;19;20472;-59
2022/06/21 00:45:49;;;;;;;3.03;1.67;;;14.40;1.00;;;;;;7386539;19;20015;-59
2022/06/21 00:48:23;;;;;;;2.15;1.50;;;14.40;1.00;;;;;;7370393;19;20010;-58
2022/06/21 00:50:56;;;;;;;1.75;1.38;;;14.30;1.00;;;;;;7367293;19;20018;-59
2022/06/21 00:53:29;;;;;;;2.80;1.50;;;14.20;1.00;;;;;;7369356;19;20014;-59
2022/06/21 00:56:04;;;;;;;2.23;1.40;;;14.20;1.00;;;;;;7364795;19;20463;-59
2022/06/21 00:58:34;;;;;;;2.47;1.40;;;14.10;1.00;;;;;;7368795;19;20115;-59
2022/06/21 01:01:10;;;;;;;1.27;1.17;;;14.10;1.00;;;;;;7366211;19;20014;-59
2022/06/21 01:03:45;;;;;;;2.03;1.25;;;14.10;1.00;;;;;;7392341;19;20478;-59
2022/06/21 01:06:20;;;;;;;3.05;1.35;;;14.10;1.00;;;;;;7363566;19;20010;-59
2022/06/21 01:08:55;;;;;;;2.65;1.42;;;14.00;1.00;;;;;;7368501;19;20013;-59
2022/06/21 01:11:43;;;;;;;2.35;1.50;;;14.10;1.00;;;;;;7368017;19;20095;-58
2022/06/21 01:14:13;;;;;;;2.17;1.40;;;14.00;1.00;;;;;;7371014;19;20007;-58
2022/06/21 01:16:46;;;;;;;2.63;1.50;;;14.00;1.00;;;;;;7366227;19;20015;-58
2022/06/21 01:19:24;;;;;;;2.80;1.63;;;13.90;1.00;;;;;;7369046;19;20118;-59
2022/06/21 01:21:57;;;;;;;2.22;1.20;;;13.90;1.00;;;;;;7366871;19;20007;-59
2022/06/21 01:24:36;;;;;;;2.50;1.40;;;13.90;1.00;;;;;;7392300;19;20016;-59
2022/06/21 01:27:09;;;;;;;3.03;1.55;;;14.00;1.00;;;;;;7363463;19;20010;-59
2022/06/21 01:29:39;;;;;;;4.90;1.70;;;13.90;1.00;;;;;;7368438;19;20025;-59
2022/06/21 01:32:09;;;;;;;6.72;1.75;;;14.00;1.00;;;;;;7365428;19;20017;-59
2022/06/21 01:34:39;;;;;;;2.38;1.40;;;14.20;1.00;;;;;;7369997;19;20006;-59
2022/06/21 01:37:13;;;;;;;3.03;1.30;;;14.20;1.00;;;;;;7363111;19;20014;-59
2022/06/21 01:39:47;;;;;;;4.23;1.53;;;14.20;1.00;;;;;;7390422;19;20517;-59
2022/06/21 01:42:24;;;;;;;3.13;1.73;;;14.40;1.00;;;;;;7364675;19;20022;-59
2022/06/21 01:44:57;;;;;;;2.90;1.73;;;14.20;1.00;;;;;;7365366;19;20466;-59
2022/06/21 01:47:32;;;;;;;3.90;1.70;;;14.30;1.00;;;;;;7366640;19;20011;-59
2022/06/21 01:50:06;;;;;;;2.20;1.52;;;14.30;1.00;;;;;;7366247;19;20017;-59
2022/06/21 01:52:39;;;;;;;3.97;1.63;;;14.20;1.00;;;;;;7363090;19;20086;-59
2022/06/21 01:55:14;;;;;;;1.88;1.40;;;13.90;1.00;;;;;;7361620;19;20019;-59
2022/06/21 01:57:46;;;;;;;2.47;1.55;;;13.80;1.00;;;;;;7386822;19;20108;-57
2022/06/21 02:00:17;;;;;;;2.90;1.80;;;13.80;1.00;;;;;;7366559;19;20031;-59
2022/06/21 02:02:50;;;;;;;3.60;1.70;;;13.80;1.00;;;;;;7364273;19;20366;-59
2022/06/21 02:05:24;;;;;;;2.70;1.85;;;13.70;1.00;;;;;;7359218;19;20386;-59
2022/06/21 02:07:56;;;;;;;3.53;1.83;;;13.70;1.00;;;;;;7366435;19;20015;-59
2022/06/21 02:10:30;;;;;;;2.35;1.50;;;13.70;1.00;;;;;;7365983;19;20031;-59
2022/06/21 02:13:07;;;;;;;2.35;2.13;;;13.60;1.00;;;;;;7363566;19;20077;-57
2022/06/21 02:15:41;;;;;;;3.83;1.85;;;13.50;1.00;;;;;;7382682;19;20022;-59
2022/06/21 02:18:15;;;;;;;5.60;2.07;;;13.30;1.00;;;;;;7363683;19;20011;-59
2022/06/21 02:20:49;;;;;;;3.13;2.25;;;13.20;1.00;;;;;;7365343;19;20031;-57
2022/06/21 02:23:22;;;;;;;4.35;2.10;;;13.30;1.00;;;;;;7367927;19;20017;-58
2022/06/21 02:25:54;;;;;;;5.15;2.28;;;13.20;1.00;;;;;;7361857;19;20025;-58
2022/06/21 02:28:28;;;;;;;3.20;1.90;;;13.30;1.00;;;;;;7368285;19;20014;-58
2022/06/21 02:31:00;;;;;;;2.88;1.83;;;13.30;1.00;;;;;;7364618;19;20014;-58
2022/06/21 02:33:34;;;;;;;2.63;1.90;;;13.30;1.00;;;;;;7388046;19;20021;-58
2022/06/21 02:36:08;;;;;;;4.00;1.85;;;13.20;1.00;;;;;;7361556;19;20011;-58
2022/06/21 02:38:42;;;;;;;2.15;1.88;;;13.30;1.00;;;;;;7367596;19;20464;-58
2022/06/21 02:41:16;;;;;;;3.40;1.80;;;13.20;1.00;;;;;;7364477;19;20031;-58
2022/06/21 02:43:53;;;;;;;4.80;2.20;;;13.10;1.00;;;;;;7366551;19;20010;-58
2022/06/21 02:46:28;;;;;;;2.45;2.10;;;13.10;1.00;;;;;;7362146;19;20098;-58
2022/06/21 02:49:02;;;;;;;2.58;2.00;;;13.10;1.00;;;;;;7366375;19;20010;-58
2022/06/21 02:51:42;;;;;;;4.30;2.20;;;13.00;1.00;;;;;;7384726;19;20014;-58
2022/06/21 02:54:18;;;;;;;3.58;1.90;;;12.90;1.00;;;;;;7365840;19;20010;-58
2022/06/21 02:56:53;;;;;;;2.03;1.75;;;12.90;1.00;;;;;;7359795;19;20100;-58
2022/06/21 02:59:26;;;;;;;4.97;2.13;;;12.90;1.00;;;;;;7366779;19;20027;-58
2022/06/21 03:02:00;;;;;;;2.28;1.80;;;13.00;1.00;;;;;;7363186;19;20014;-58
2022/06/21 03:04:37;;;;;;;3.22;2.17;;;13.10;1.00;;;;;;7366707;19;20013;-58
2022/06/21 03:07:08;;;;;;;3.75;1.98;;;13.10;1.00;;;;;;7358550;19;20065;-57
2022/06/21 03:09:38;;;;;;;3.65;1.70;;;13.10;1.00;;;;;;7387671;19;20017;-58
2022/06/21 03:12:09;;;;;;;3.20;1.95;;;13.10;1.00;;;;;;7360836;19;20015;-58
2022/06/21 03:14:41;;;;;;;3.85;1.90;;;13.30;1.00;;;;;;7365968;19;20553;-57
2022/06/21 03:17:12;;;;;;;2.97;1.85;;;13.40;1.00;;;;;;7361369;19;20002;-58
2022/06/21 03:19:47;;;;;;;3.80;2.15;;;13.60;1.00;;;;;;7366154;19;20053;-60
2022/06/21 03:22:21;;;;;;;3.70;1.90;;;13.50;1.00;;;;;;7362717;19;20032;-58
2022/06/21 03:24:57;;;;;;;2.92;1.83;;;13.60;1.00;;;;;;7363729;19;20022;-58
2022/06/21 03:27:33;;;;;;;2.40;1.95;;;13.60;1.00;;;;;;7385547;19;20454;-58
2022/06/21 03:30:07;;;;;;;2.72;2.10;;;13.60;1.00;;;;;;7365604;19;20021;-59
2022/06/21 03:32:38;;;;;;;;;;;13.70;1.00;;;;;;7361102;19;20029;-58
2022/06/21 03:35:09;;;;;;;2.58;2.25;;;13.90;1.00;;;;;;7359910;19;19911;-58
2022/06/21 03:37:42;;;;;;;3.88;2.40;;;14.10;1.00;;;;;;7364093;19;20398;-58
2022/06/21 03:43:07;;;;;;;2.78;2.03;;;14.60;1.00;;;;;;7362374;19;20094;-58
2022/06/21 03:45:43;;;;;;;4.60;1.98;;;15.60;1.00;;;;;;7381202;19;20025;-58
2022/06/21 03:48:20;;;;;;;2.22;1.77;;;16.20;1.00;;;;;;7363455;19;20010;-58
2022/06/21 03:50:55;;;;;;;4.05;1.75;;;16.20;1.00;;;;;;7361907;19;20007;-59
2022/06/21 03:53:29;;;;;;;2.83;1.60;;;16.80;1.00;;;;;;7364480;19;20014;-59
2022/06/21 03:56:08;;;;;;;4.07;2.08;;;16.60;1.00;;;;;;7359083;19;20023;-58
2022/06/21 03:58:48;;;;;;;3.20;1.80;;;16.60;1.00;;;;;;7364902;19;20006;-58
2022/06/21 04:01:27;;;;;;;2.08;1.40;;;17.20;1.00;;;;;;7361887;19;20111;-59
2022/06/21 04:04:01;;;;;;;3.97;2.00;;;17.70;1.00;;;;;;7363555;19;20582;-58
2022/06/21 04:06:36;;;;;;;3.25;1.60;;;17.60;1.00;;;;;;7379777;19;20014;-59
2022/06/21 04:09:11;;;;;;;2.80;1.63;;;17.40;1.00;;;;;;7363169;19;20509;-58
2022/06/21 04:11:46;;;;;;;2.78;1.83;;;17.10;1.00;;;;;;7361558;19;20021;-58
2022/06/21 04:14:19;;;;;;;;;;;16.60;1.00;;;;;;7364035;19;20447;-58
2022/06/21 04:17:02;;;;;;;6.07;2.67;;;17.00;1.00;;;;;;7358111;19;20339;-58
2022/06/21 04:19:37;;;;;;;2.58;1.88;;;17.30;1.00;;;;;;7369040;19;20264;-59
2022/06/21 04:22:13;;;;;;;4.32;1.77;;;17.60;1.00;;;;;;7367931;19;20022;-59
2022/06/21 04:24:49;;;;;;;5.25;2.00;;;18.10;1.00;;;;;;7392944;19;20014;-58
2022/06/21 04:27:25;;;;;;;2.42;1.60;;;18.00;1.00;;;;;;7366244;19;20007;-58
2022/06/21 04:29:58;;;;;;;5.93;1.73;;;18.20;1.00;;;;;;7370701;19;20011;-58
2022/06/21 04:32:34;;;;;;;2.95;1.60;;;19.10;1.00;;;;;;7366431;19;20106;-58
2022/06/21 04:35:15;;;;;;;2.95;1.50;;;19.80;1.00;;;;;;7366156;19;20010;-58
2022/06/21 04:37:49;;;;;;;6.30;2.20;;;19.80;1.00;;;;;;7370625;19;20010;-58
2022/06/21 04:40:25;;;;;;;2.60;1.63;;;19.60;1.00;;;;;;7369843;19;20502;-58
2022/06/21 04:43:02;;;;;;;5.10;1.63;;;19.80;1.00;;;;;;7366560;19;20801;-59
2022/06/21 04:45:37;;;;;;;2.55;1.67;;;19.70;1.00;;;;;;7383118;19;20022;-59
2022/06/21 04:48:20;;;;;;;3.08;1.48;;;21.00;1.00;;;;;;7370423;19;20421;-59
2022/06/21 04:50:54;;;;;;;4.20;1.70;;;20.80;1.00;;;;;;7367342;19;20018;-59
2022/06/21 04:53:30;;;;;;;3.35;1.52;;;21.00;1.00;;;;;;7370691;19;20015;-59
2022/06/21 04:56:09;;;;;;;3.17;1.80;;;21.00;1.00;;;;;;7363202;19;20047;-59
2022/06/21 04:58:39;;;;;;;5.38;1.48;;;21.40;1.00;;;;;;7370728;19;20489;-58
2022/06/21 05:03:55;;;;;;;4.07;2.00;;;19.60;1.00;;;;;;7369045;19;20043;-59
2022/06/21 05:06:26;;;;;;;3.70;1.77;;;18.00;1.00;;;;;;7383045;19;20726;-58
2022/06/21 05:08:56;;;;;;;4.15;2.05;;;17.20;1.00;;;;;;7369149;19;20086;-58
2022/06/21 05:11:32;;;;;;;6.03;1.80;;;17.50;1.00;;;;;;7365939;19;20007;-57
2022/06/21 05:14:02;;;;;;;2.83;2.00;;;17.70;1.00;;;;;;7370057;19;20042;-58
2022/06/21 05:16:37;;;;;;;5.50;1.85;;;17.60;1.00;;;;;;7362143;19;20023;-59
2022/06/21 05:19:20;;;;;;;5.68;2.10;;;17.80;1.00;;;;;;7368930;19;20018;-58
2022/06/21 05:21:54;;;;;;;3.90;1.80;;;18.20;1.00;;;;;;7367263;19;20086;-59
2022/06/21 05:24:25;;;;;;;3.40;1.88;;;19.50;1.00;;;;;;7391003;19;20122;-58
2022/06/21 05:27:04;;;;;;;5.53;2.08;;;20.50;1.00;;;;;;7359755;19;20015;-59
2022/06/21 05:29:41;;;;;;;5.20;1.92;;;20.20;1.00;;;;;;7366060;19;20568;-59
2022/06/21 05:32:17;;;;;;;2.95;1.90;;;19.80;1.00;;;;;;7364984;19;20016;-59
2022/06/21 05:34:55;;;;;;;4.10;2.15;;;20.10;1.00;;;;;;7368254;19;20663;-59
2022/06/21 05:37:32;;;;;;;7.18;2.15;;;19.80;1.00;;;;;;7361864;19;20016;-59
2022/06/21 05:40:07;;;;;;;3.40;1.80;;;20.20;1.00;;;;;;7366023;19;20014;-57
2022/06/21 05:42:39;;;;;;;4.60;1.83;;;20.80;1.00;;;;;;7385187;19;20025;-58
2022/06/21 05:45:14;;;;;;;3.10;2.03;;;21.10;1.00;;;;;;7363336;19;20017;-57
2022/06/21 05:47:46;;;;;;;5.95;2.10;;;20.90;1.00;;;;;;7365547;19;20029;-58
2022/06/21 05:50:24;;;;;;;4.43;2.00;;;20.90;1.00;;;;;;7368468;19;20002;-58
2022/06/21 05:52:58;;;;;;;3.22;1.85;;;20.60;1.00;;;;;;7364829;19;20019;-58
2022/06/21 05:55:31;;;;;;;3.42;2.05;;;21.10;1.00;;;;;;7362968;19;20014;-58
2022/06/21 05:58:04;;;;;;;3.95;2.00;;;21.10;1.00;;;;;;7366847;19;20085;-58
2022/06/21 06:00:41;;;;;;;2.92;1.80;;;21.60;1.00;;;;;;7389348;19;20015;-58
2022/06/21 06:03:19;;;;;;;3.10;2.00;;;20.30;1.00;;;;;;7365148;19;20027;-58
2022/06/21 06:05:52;;;;;;;2.67;1.70;;;18.70;1.00;;;;;;7359243;19;20007;-57
2022/06/21 06:08:26;;;;;;;5.18;1.92;;;19.20;1.00;;;;;;7366639;19;20027;-58
2022/06/21 06:10:58;;;;;;;8.68;2.33;;;19.50;1.00;;;;;;7364292;19;20363;-58
2022/06/21 06:13:33;;;;;;;6.40;2.00;;;19.30;1.00;;;;;;7367622;19;20388;-58
2022/06/21 06:16:08;;;;;;;4.38;1.60;;;19.50;1.00;;;;;;7358948;19;20025;-58
2022/06/21 06:18:43;;;;;;;3.88;1.80;;;18.50;1.00;;;;;;7388366;19;20015;-58
2022/06/21 06:21:23;;;;;;;3.53;1.92;;;19.10;1.00;;;;;;7363745;19;20159;-58
2022/06/21 06:23:57;;;;;;;4.53;1.90;;;18.70;1.00;;;;;;7366163;19;20010;-58
2022/06/21 06:26:30;;;;;;;2.50;1.65;;;18.70;1.00;;;;;;7358537;19;20026;-58
2022/06/21 06:29:06;;;;;;;5.30;1.77;;;18.90;1.00;;;;;;7365425;19;20018;-58
2022/06/21 06:31:44;;;;;;;3.42;1.70;;;19.50;1.00;;;;;;7362972;19;20021;-58
2022/06/21 06:34:17;;;;;;;3.78;1.80;;;19.50;1.00;;;;;;7364999;19;20029;-58
2022/06/21 06:36:53;;;;;;;5.05;1.80;;;18.80;1.00;;;;;;7365592;19;20358;-59
2022/06/21 06:39:26;;;;;;;4.15;1.75;;;19.50;1.00;;;;;;7384224;19;20018;-58
2022/06/21 06:42:03;;;;;;;3.15;1.65;;;19.80;1.00;;;;;;7358553;19;20086;-58
2022/06/21 06:44:37;;;;;;;6.68;1.90;;;20.30;1.00;;;;;;7365233;19;20049;-58
2022/06/21 06:47:11;;;;;;;;;;;20.10;1.00;;;;;;7357529;19;20326;-58
2022/06/21 06:49:45;;;;;;;3.60;1.80;;;20.10;1.00;;;;;;7366062;19;19914;-58
2022/06/21 06:52:19;;;;;;;;;;;20.40;1.00;;;;;;7361328;19;20014;-58
2022/06/21 06:54:55;;;;;;;2.57;1.50;;;20.20;1.00;;;;;;7363406;19;19955;-58
2022/06/21 06:57:31;;;;;;;2.95;1.90;;;19.60;1.00;;;;;;7380935;19;20025;-58
2022/06/21 07:00:03;;;;;;;3.10;1.42;;;19.50;1.00;;;;;;7363189;19;20025;-58
2022/06/21 07:02:38;;;;;;;4.60;1.60;;;19.80;1.00;;;;;;7362840;19;20017;-58
2022/06/21 07:05:15;;;;;;;3.45;1.60;;;20.40;1.00;;;;;;7359709;19;20029;-58
2022/06/21 07:07:52;;;;;;;3.78;1.70;;;20.10;1.00;;;;;;7362763;19;20014;-58
2022/06/21 07:10:25;;;;;;;6.07;1.50;;;20.10;1.00;;;;;;7365053;19;20494;-58
2022/06/21 07:12:57;;;;;;;5.18;2.00;;;20.70;1.00;;;;;;7362255;19;20021;-57
2022/06/21 07:15:36;;;;;;;5.00;1.73;;;20.70;1.00;;;;;;7379748;19;20014;-57
2022/06/21 07:18:08;;;;;;;13.65;2.35;;;20.50;1.00;;;;;;7365293;19;20007;-58
2022/06/21 07:20:41;;;;;;;2.83;1.63;;;20.00;1.00;;;;;;7362953;19;20017;-59
2022/06/21 07:23:17;;;;;;;7.78;1.70;;;20.60;1.00;;;;;;7362911;19;20015;-59
2022/06/21 07:25:51;;;;;;;2.88;1.60;;;20.50;1.00;;;;;;7357948;19;20012;-57
2022/06/21 07:28:28;;;;;;;7.28;1.80;;;20.20;1.00;;;;;;7365152;19;20015;-59
2022/06/21 07:31:01;;;;;;;20.15;2.58;;;20.10;1.00;;;;;;7361615;19;20015;-58
2022/06/21 07:33:35;;;;;;;6.07;1.95;;;21.00;1.00;;;;;;7383847;19;20033;-58
2022/06/21 07:36:10;;;;;;;3.50;2.17;;;21.00;1.00;;;;;;7356484;19;20015;-58
2022/06/21 07:38:49;;;;;;;6.95;2.03;;;20.60;1.00;;;;;;7363588;19;20030;-59
2022/06/21 07:41:25;;;;;;;4.05;1.92;;;20.30;1.00;;;;;;7359692;19;20011;-59
2022/06/21 07:44:00;;;;;;;3.78;1.83;;;20.40;1.00;;;;;;7365133;19;20027;-59
2022/06/21 07:46:32;;;;;;;5.45;1.77;;;20.90;1.00;;;;;;7357813;19;20500;-59
2022/06/21 07:49:18;;;;;;;5.28;1.88;;;21.30;1.00;;;;;;7363227;19;20022;-59
2022/06/21 07:51:50;;;;;;;2.92;1.80;;;21.50;1.00;;;;;;7363716;19;20022;-59
2022/06/21 07:54:27;;;;;;;6.47;2.17;;;21.60;1.00;;;;;;7391755;19;20011;-60
2022/06/21 07:57:00;;;;;;;3.63;1.50;;;21.70;1.00;;;;;;7361128;19;20354;-59
2022/06/21 07:59:43;;;;;;;4.15;1.48;;;21.90;1.00;;;;;;7369410;19;20010;-59
2022/06/21 08:07:52;;;;;;;3.88;1.40;;;22.10;1.00;;;;;;7368893;19;20458;-59
2022/06/21 08:10:30;;;;;;;3.03;1.70;;;22.60;1.00;;;;;;7369255;19;20014;-60
2022/06/21 08:13:00;;;;;;;3.33;1.70;;;22.00;1.00;;;;;;7366585;19;20077;-60
2022/06/21 08:15:37;;;;;;;5.40;2.10;;;22.10;1.00;;;;;;7390512;19;20305;-61
2022/06/21 08:18:13;;;;;;;4.55;1.98;;;21.20;1.00;;;;;;7368897;19;20019;-59
2022/06/21 08:20:48;;;;;;;3.97;2.05;;;21.60;1.00;;;;;;7368325;19;20041;-59
2022/06/21 08:23:21;;;;;;;3.67;1.52;;;22.20;1.00;;;;;;7362223;19;20367;-59
2022/06/21 08:26:02;;;;;;;3.60;1.80;;;22.90;1.00;;;;;;7364654;19;20045;-60
2022/06/21 08:28:39;;;;;;;3.58;1.70;;;21.90;1.00;;;;;;7367993;19;20014;-58
2022/06/21 08:31:14;;;;;;;3.63;1.80;;;22.60;1.00;;;;;;7366260;19;20028;-60
2022/06/21 08:33:52;;;;;;;4.25;1.88;;;22.10;1.00;;;;;;7387303;19;20021;-59
2022/06/21 08:36:27;;;;;;;3.17;1.58;;;22.70;1.00;;;;;;7365857;19;20010;-59
2022/06/21 08:39:01;;;;;;;5.03;2.03;;;23.00;1.00;;;;;;7370259;19;20081;-60
2022/06/21 08:41:56;;;;;;;4.38;1.83;;;22.90;1.00;;;;;;7366130;19;20040;-59
2022/06/21 08:48:22;;;;;;;4.03;1.92;;;21.80;1.00;;;;;;7367655;19;20003;-59
2022/06/21 08:51:05;;;;;;;2.22;1.85;;;21.90;1.00;;;;;;7368815;19;20383;-59
2022/06/21 08:53:48;;;;;;;3.67;1.70;;;22.70;1.00;;;;;;7365902;19;20183;-59
2022/06/21 08:56:22;;;;;;;2.20;1.35;;;22.50;1.00;;;;;;7366354;19;20550;-59
2022/06/21 08:59:02;;;;;;;;;;;22.30;1.00;;;;;;7371192;19;20017;-58
2022/06/21 09:01:42;;;;;;;5.93;1.98;;;23.50;1.00;;;;;;7366164;19;19915;-59
2022/06/21 09:04:28;;;;;;;4.47;1.85;;;23.90;1.00;;;;;;7367733;19;20547;-59
2022/06/21 09:07:25;;;;;;;3.88;2.00;;;22.70;1.00;;;;;;7365979;19;20026;-60
2022/06/21 09:10:11;;;;;;;5.22;2.10;;;22.30;1.00;;;;;;7369007;19;20533;-60
2022/06/21 09:12:54;;;;;;;2.25;1.80;;;22.00;1.00;;;;;;7386016;19;20013;-59
2022/06/21 09:15:40;;;;;;;3.45;2.05;;;22.50;1.00;;;;;;7368151;19;20023;-59
2022/06/21 09:18:28;;;;;;;3.80;1.70;;;23.20;1.00;;;;;;7370671;19;20014;-59
2022/06/21 09:21:05;;;;;;;4.15;1.83;;;23.00;1.00;;;;;;7364944;19;20040;-60
2022/06/21 09:23:53;;;;;;;6.60;2.10;;;23.20;1.00;;;;;;7366496;19;20017;-59
2022/06/21 09:26:31;;;;;;;4.10;1.60;;;23.10;1.00;;;;;;7364119;19;20010;-60
2022/06/21 09:29:11;;;;;;;1.80;1.65;;;23.00;1.00;;;;;;7368361;19;20390;-60
2022/06/21 09:31:53;;;;;;;3.28;1.92;;;22.60;1.00;;;;;;7362718;19;20852;-58
2022/06/21 09:34:31;;;;;;;3.65;1.65;;;23.20;1.00;;;;;;7370249;19;20032;-60
2022/06/21 09:37:22;;;;;;;4.20;1.77;;;24.10;1.00;;;;;;7364107;19;20089;-61
2022/06/21 09:40:01;;;;;;;5.15;1.50;;;24.40;1.00;;;;;;7369190;19;20069;-60
2022/06/21 09:42:34;;;;;;;3.03;1.80;;;25.00;1.00;;;;;;7383517;19;20045;-58
2022/06/21 09:45:14;;;;;;;6.78;2.45;;;24.40;1.00;;;;;;7366089;19;20101;-60
2022/06/21 09:47:57;;;;;;;3.88;2.28;;;23.90;1.00;;;;;;7365697;19;20011;-60
2022/06/21 09:50:31;;;;;;;5.10;1.98;;;23.20;1.00;;;;;;7368464;19;20073;-58
2022/06/21 09:53:11;;;;;;;5.60;1.80;;;24.00;1.00;;;;;;7361743;19;20010;-59
2022/06/21 09:55:49;;;;;;;4.85;1.48;;;24.70;1.00;;;;;;7364793;19;20014;-60
2022/06/21 09:58:28;;;;;;;4.18;2.10;;;24.80;1.00;;;;;;7367432;19;20010;-59
2022/06/21 10:01:05;;;;;;;5.43;1.98;;;25.10;1.00;;;;;;7366049;19;20996;-59
2022/06/21 10:03:46;;;;;;;6.57;2.15;;;24.70;1.00;;;;;;7385779;19;20021;-60
2022/06/21 10:06:26;;;;;;;4.82;2.20;;;24.70;1.00;;;;;;7363702;19;20021;-60
2022/06/21 10:09:17;;;;;;;3.80;1.77;;;24.30;1.00;;;;;;7367474;19;20434;-60
2022/06/21 10:11:59;;;;;;;3.00;1.55;;;24.50;1.00;;;;;;7361639;19;20078;-60
2022/06/21 10:14:50;;;;;;;5.55;2.05;;;24.60;1.00;;;;;;7367040;19;20017;-58
2022/06/21 10:18:00;;;;;;;7.68;1.85;;;24.50;1.00;;;;;;7362492;19;20074;-60
2022/06/21 10:20:51;;;;;;;5.40;2.08;;;24.30;1.00;;;;;;7364999;19;20014;-59
2022/06/21 10:23:52;;;;;;;6.35;2.20;;;24.20;1.00;;;;;;7362180;19;20085;-67
2022/06/21 10:26:46;;;;;;;9.30;2.30;;;24.60;1.00;;;;;;7363190;19;20010;-61
2022/06/21 10:29:48;;;;;;;3.80;2.10;;;24.60;1.00;;;;;;7364260;19;20031;-60
2022/06/21 10:32:35;;;;;;;6.65;2.28;;;24.50;1.00;;;;;;7359268;19;20011;-59
2022/06/21 10:35:33;;;;;;;5.75;2.42;;;24.00;1.00;;;;;;7366594;19;20082;-60
2022/06/21 10:38:24;;;;;;;4.60;2.10;;;24.10;1.00;;;;;;7363410;19;20081;-62
2022/06/21 10:41:06;;;;;;;9.88;2.45;;;23.60;1.00;;;;;;7362133;19;21893;-59
2022/06/21 10:43:53;;;;;;;5.95;2.03;;;23.30;1.00;;;;;;7360541;19;20807;-60
2022/06/21 10:46:29;;;;;;;4.50;2.22;;;24.30;1.00;;;;;;7363992;19;20010;-60
2022/06/21 10:49:17;;;;;;;3.28;2.10;;;24.40;1.00;;;;;;7365669;19;20017;-60
2022/06/21 10:52:16;;;;;;;5.43;2.50;;;24.70;1.00;;;;;;7368367;19;20069;-62
2022/06/21 10:55:23;;;;;;;5.57;2.25;;;24.90;1.00;;;;;;7386549;19;20018;-61
2022/06/21 10:58:08;;;;;;;5.82;2.72;;;24.70;1.00;;;;;;7257346;19;2004295;-61
2022/06/21 11:03:45;;;;;;;4.40;2.50;;;25.40;1.00;;;;;;7362498;19;20086;-60
2022/06/21 11:06:25;;;;;;;6.85;2.75;;;24.10;1.00;;;;;;7362759;19;20010;-61
2022/06/21 11:09:05;;;;;;;6.90;2.55;;;24.60;1.00;;;;;;7364622;19;20015;-61
2022/06/21 11:11:45;;;;;;;6.47;2.40;;;25.20;1.00;;;;;;7357348;19;20011;-61
2022/06/21 11:14:27;;;;;;;3.92;2.55;;;25.50;1.00;;;;;;7365617;19;20003;-61
2022/06/21 11:17:08;;;;;;;4.85;2.40;;;24.60;1.00;;;;;;7361221;19;20066;-62
2022/06/21 11:19:49;;;;;;;4.00;2.60;;;24.70;1.00;;;;;;7364716;19;20462;-61
2022/06/21 11:22:36;;;;;;;6.25;2.30;;;24.50;1.00;;;;;;7355016;19;20006;-61
2022/06/21 11:25:16;;;;;;;3.50;2.30;;;25.10;1.00;;;;;;7378565;19;20473;-61
2022/06/21 11:27:59;;;;;;;5.60;3.00;;;25.90;1.00;;;;;;7329570;19;20106;-61
2022/06/21 11:30:39;;;;;;;7.90;3.03;;;25.80;1.00;;;;;;7365723;19;20010;-60
2022/06/21 11:33:15;;;;;;;2.60;2.38;;;24.80;1.00;;;;;;7358056;19;20031;-62
2022/06/21 11:35:51;;;;;;;4.43;2.80;;;24.90;1.00;;;;;;7364102;19;20018;-61
2022/06/21 11:38:39;;;;;;;3.35;2.45;;;25.10;1.00;;;;;;7364367;19;20078;-62
2022/06/21 11:42:04;;;;;;;4.13;2.47;;;25.60;1.00;;;;;;7381036;19;20028;-62
2022/06/21 11:44:22;;;;;;;7.90;3.38;;;25.80;1.00;;;;;;7361833;19;20019;-61
2022/06/21 11:46:58;;;;;;;6.75;2.80;;;25.30;1.00;;;;;;7360390;19;20017;-62
2022/06/21 11:49:40;;;;;;;5.70;2.90;;;25.10;1.00;;;;;;7362293;19;20016;-61
2022/06/21 11:52:49;;;;;;;5.43;3.38;;;25.60;1.00;;;;;;7357019;19;20086;-62
2022/06/21 11:55:28;;;;;;;6.28;2.60;;;25.70;1.00;;;;;;7362893;19;20024;-62
2022/06/21 11:58:11;;;;;;;6.63;2.55;;;25.60;1.00;;;;;;7361540;19;20082;-63
2022/06/21 12:00:47;;;;;;;7.57;2.95;;;25.70;1.00;;;;;;7363793;19;20010;-61
2022/06/21 12:03:26;;;;;;;6.50;2.78;;;25.80;1.00;;;;;;7356671;19;20015;-62
2022/06/21 12:05:58;;;;;;;3.50;2.90;;;26.20;1.00;;;;;;7359875;19;20010;-62
2022/06/21 12:08:56;;;;;;;4.53;2.53;;;26.60;1.00;;;;;;7363223;19;20014;-62
2022/06/21 12:11:36;;;;;;;3.90;2.50;;;26.40;1.00;;;;;;7357644;19;20354;-62
2022/06/21 12:14:21;;;;;;;4.47;2.85;;;26.50;1.00;;;;;;7383388;19;20496;-63
2022/06/21 12:16:57;;;;;;;5.80;2.80;;;27.20;1.00;;;;;;7359041;19;20020;-63
2022/06/21 12:19:33;;;;;;;5.70;2.70;;;25.90;1.00;;;;;;7362495;19;20470;-62
2022/06/21 12:22:24;;;;;;;7.22;2.80;;;26.00;1.00;;;;;;7354668;19;20025;-62
2022/06/21 12:24:55;;;;;;;7.35;3.58;;;26.20;1.00;;;;;;7362375;19;20459;-62
2022/06/21 12:27:26;;;;;;;4.07;2.88;;;25.90;1.00;;;;;;7359765;19;20007;-62
2022/06/21 12:30:02;;;;;;;6.45;2.70;;;25.80;1.00;;;;;;7362478;19;20018;-61
2022/06/21 12:32:34;;;;;;;4.57;2.40;;;25.80;1.00;;;;;;7352766;19;20018;-62
2022/06/21 12:35:09;;;;;;;6.95;3.75;;;25.80;1.00;;;;;;7384310;19;20086;-62
2022/06/21 12:37:43;;;;;;;4.50;2.83;;;25.80;1.00;;;;;;7359520;19;20509;-62
2022/06/21 12:40:24;;;;;;;5.82;2.85;;;25.70;1.00;;;;;;7365813;19;20074;-65
2022/06/21 12:43:04;;;;;;;4.28;2.60;;;26.00;1.00;;;;;;7347457;19;20018;-62
2022/06/21 12:45:46;;;;;;;3.25;2.95;;;26.10;1.00;;;;;;7367669;19;20021;-62
2022/06/21 12:48:47;;;;;;;3.53;2.90;;;25.80;1.00;;;;;;7366416;19;20015;-63
2022/06/21 12:51:24;;;;;;;6.88;2.92;;;26.10;1.00;;;;;;7365551;19;20544;-62
2022/06/21 12:54:23;;;;;;;6.57;3.22;;;26.50;1.00;;;;;;7364118;19;20024;-63
2022/06/21 12:57:15;;;;;;;5.25;2.80;;;26.30;1.00;;;;;;7363577;19;20410;-62
2022/06/21 13:00:13;;;;;;;7.68;2.95;;;26.40;1.00;;;;;;7365434;19;20024;-62
2022/06/21 13:03:11;;;;;;;5.50;2.80;;;26.10;1.00;;;;;;7358735;19;20014;-62
2022/06/21 13:05:54;;;;;;;8.20;3.15;;;25.90;1.00;;;;;;7364812;19;20039;-61
2022/06/21 13:08:47;;;;;;;6.22;3.20;;;26.00;1.00;;;;;;7365895;19;20041;-62
2022/06/21 13:11:49;;;;;;;4.90;2.80;;;26.00;1.00;;;;;;7384465;19;20455;-64
2022/06/21 13:14:34;;;;;;;6.05;3.05;;;26.40;1.00;;;;;;7262494;19;2004310;-62
2022/06/21 13:17:19;;;;;;;5.70;2.80;;;26.50;1.00;;;;;;7382166;19;20074;-62
2022/06/21 13:19:53;;;;;;;;;;;26.70;1.00;;;;;;7367762;19;20074;-62
2022/06/21 13:22:32;;;;;;;;;;;26.30;1.00;;;;;;7360309;19;19921;-63
2022/06/21 13:25:18;;;;;;;4.78;3.20;;;26.80;1.00;;;;;;7365598;19;19907;-61
2022/06/21 13:27:59;;;;;;;4.18;3.20;;;27.00;1.00;;;;;;7363398;19;20007;-61
2022/06/21 13:30:44;;;;;;;4.07;3.33;;;27.50;1.00;;;;;;7366144;19;20022;-61
2022/06/21 13:33:17;;;;;;;3.70;3.10;;;26.70;1.00;;;;;;7360318;19;20340;-63
2022/06/21 13:35:55;;;;;;;7.85;3.17;;;26.80;1.00;;;;;;7367887;19;20014;-62
2022/06/21 13:38:40;;;;;;;7.63;3.22;;;26.80;1.00;;;;;;7366644;19;20078;-64
2022/06/21 13:44:05;;;;;;;3.80;3.05;;;27.00;1.00;;;;;;7363467;19;20013;-61
2022/06/21 13:46:40;;;;;;;6.47;3.45;;;27.10;1.00;;;;;;7362872;19;20071;-62
2022/06/21 13:49:30;;;;;;;8.15;3.22;;;27.40;1.00;;;;;;7366399;19;20006;-61
2022/06/21 13:52:07;;;;;;;4.75;4.10;;;27.20;1.00;;;;;;7361665;19;20010;-62
2022/06/21 13:54:51;;;;;;;5.13;3.47;;;27.50;1.00;;;;;;7366816;19;20050;-61
2022/06/21 13:57:45;;;;;;;4.90;3.60;;;27.20;1.00;;;;;;7363511;19;20082;-61
2022/06/21 14:00:18;;;;;;;5.10;3.30;;;27.30;1.00;;;;;;7368051;19;20414;-63
2022/06/21 14:02:55;;;;;;;7.38;3.67;;;27.70;1.00;;;;;;7359646;19;20529;-63
2022/06/21 14:05:37;;;;;;;8.38;3.20;;;27.80;1.00;;;;;;7366802;19;20044;-63
2022/06/21 14:08:15;;;;;;;5.40;3.17;;;27.90;1.00;;;;;;7384189;19;20014;-61
2022/06/21 14:10:53;;;;;;;3.95;2.85;;;27.90;1.00;;;;;;7366356;19;20020;-62
2022/06/21 14:13:37;;;;;;;4.65;3.60;;;28.00;1.00;;;;;;7361795;19;20052;-62